Time;durP1;ratioP1;P1;durP2;ratioP2;P2;SDS_P1;SDS_P2;PMS_P1;PMS_P2;Temp;Humidity;BMP_temperature;BMP_pressure;BME280_temperature;BME280_humidity;BME280_pressure;Samples;Min_cycle;Max_cycle;Signal;HPM_P1;HPM_P2
2021/08/19 00:00:08;;;;;;;4.13;3.72;;;;;;;16.14;69.85;93409.56;5069169;28;20032;-40
2021/08/19 00:02:34;;;;;;;6.28;4.00;;;;;;;16.14;69.99;93419.94;5068862;28;20028;-41
2021/08/19 00:04:59;;;;;;;6.93;3.72;;;;;;;16.18;69.77;93417.47;5069834;28;20085;-40
2021/08/19 00:07:25;;;;;;;7.35;4.43;;;;;;;16.04;70.45;93411.63;5072291;28;20021;-40
2021/08/19 00:09:52;;;;;;;7.13;4.18;;;;;;;15.77;71.82;93414.50;5072377;28;20025;-40
2021/08/19 00:12:17;;;;;;;4.97;3.83;;;;;;;15.77;72.16;93422.13;5072360;28;20458;-40
2021/08/19 00:14:43;;;;;;;5.53;3.50;;;;;;;15.68;72.87;93420.06;5072631;28;20028;-40
2021/08/19 00:17:08;;;;;;;4.78;3.75;;;;;;;15.48;73.76;93416.50;5072471;28;20407;-40
2021/08/19 00:19:34;;;;;;;5.38;4.13;;;;;;;15.15;74.65;93404.94;5071966;28;20428;-40
2021/08/19 00:22:04;;;;;;;5.75;4.05;;;;;;;15.14;75.42;93417.38;5071416;28;20143;-40
2021/08/19 00:24:29;;;;;;;7.85;4.38;;;;;;;15.07;76.13;93417.50;5072359;28;20024;-39
2021/08/19 00:26:55;;;;;;;6.90;4.07;;;;;;;15.14;75.83;93409.03;5060942;28;20090;-39
2021/08/19 00:29:20;;;;;;;7.75;4.97;;;;;;;15.25;75.58;93415.34;5036140;28;20026;-40
2021/08/19 00:31:45;;;;;;;6.40;4.88;;;;;;;15.13;75.99;93413.13;5032446;28;20393;-40
2021/08/19 00:34:11;;;;;;;4.78;3.92;;;;;;;15.20;75.48;93409.50;5032368;28;20459;-40
2021/08/19 00:36:36;;;;;;;5.47;4.00;;;;;;;15.13;75.25;93392.94;5014266;28;20417;-40
2021/08/19 00:39:03;;;;;;;4.60;3.63;;;;;;;15.32;74.82;93404.13;5031383;28;20408;-40
2021/08/19 00:41:28;;;;;;;7.22;4.10;;;;;;;15.44;74.39;93407.13;5038125;28;20431;-42
2021/08/19 00:44:01;;;;;;;4.40;3.92;;;;;;;15.66;73.82;93411.53;5071853;28;20025;-43
2021/08/19 00:46:29;;;;;;;5.10;4.05;;;;;;;15.80;72.49;93412.59;5071788;28;20024;-42
2021/08/19 00:49:04;;;;;;;5.03;4.00;;;;;;;15.88;72.52;93422.28;5071711;28;20048;-41
2021/08/19 00:51:37;;;;;;;5.35;3.72;;;;;;;16.00;71.97;93428.03;5071967;28;20071;-42
2021/08/19 00:54:07;;;;;;;6.47;3.88;;;;;;;16.10;72.10;93425.97;5071904;28;20021;-41
2021/08/19 00:56:34;;;;;;;7.25;4.35;;;;;;;16.22;71.15;93421.28;5071913;28;20020;-41
2021/08/19 00:59:01;;;;;;;7.57;4.28;;;;;;;16.23;70.79;93427.59;5071403;28;20044;-40
2021/08/19 01:01:26;;;;;;;7.68;4.25;;;;;;;16.12;71.54;93423.34;5053586;28;20125;-41
2021/08/19 01:03:54;;;;;;;5.40;4.05;;;;;;;15.92;72.33;93424.63;5071446;28;20020;-41
2021/08/19 01:06:20;;;;;;;6.28;4.35;;;;;;;15.82;72.62;93418.31;5070743;28;20103;-41
2021/08/19 01:08:45;;;;;;;6.50;4.10;;;;;;;15.83;72.85;93422.59;5071192;28;20144;-41
2021/08/19 01:11:10;;;;;;;4.50;4.10;;;;;;;15.85;72.71;93431.09;5071478;28;20017;-41
2021/08/19 01:13:37;;;;;;;5.85;4.05;;;;;;;15.96;72.37;93429.78;5053635;28;20400;-41
2021/08/19 01:16:02;;;;;;;8.68;4.60;;;;;;;16.03;71.92;93428.88;5071167;28;20036;-41
2021/08/19 01:18:41;;;;;;;9.30;4.53;;;;;;;16.02;71.68;93425.38;5071390;28;20055;-46
2021/08/19 01:21:09;;;;;;;8.45;5.07;;;;;;;16.01;71.19;93423.91;5070878;28;20021;-39
2021/08/19 01:23:34;;;;;;;4.95;4.00;;;;;;;16.01;71.25;93423.16;5071228;28;20027;-44
2021/08/19 01:26:02;;;;;;;5.75;4.28;;;;;;;16.02;70.89;93425.38;5067030;28;20013;-42
2021/08/19 01:28:28;;;;;;;6.27;4.27;;;;;;;16.03;70.78;93426.84;5041881;28;20572;-41
2021/08/19 01:30:53;;;;;;;7.32;4.20;;;;;;;16.03;70.99;93420.53;5031238;28;20033;-41
2021/08/19 01:33:20;;;;;;;6.88;4.30;;;;;;;16.00;70.31;93427.28;5030763;28;20026;-41
2021/08/19 01:35:46;;;;;;;7.38;4.65;;;;;;;15.98;70.29;93424.34;5031160;28;20033;-42
2021/08/19 01:38:11;;;;;;;6.32;4.53;;;;;;;15.80;70.69;93415.41;5043977;28;20033;-41
2021/08/19 01:40:37;;;;;;;5.50;3.97;;;;;;;15.71;71.19;93411.28;5070579;28;20024;-40
2021/08/19 01:43:09;;;;;;;6.75;4.20;;;;;;;15.65;71.28;93416.41;5070886;28;20020;-40
2021/08/19 01:45:35;;;;;;;5.47;3.72;;;;;;;15.49;71.43;93420.00;5070864;28;20029;-40
2021/08/19 01:48:00;;;;;;;5.80;4.13;;;;;;;15.48;71.77;93424.13;5070782;28;20024;-40
2021/08/19 01:50:26;;;;;;;6.90;4.43;;;;;;;15.47;71.93;93411.50;5070671;28;20019;-41
2021/08/19 01:52:51;;;;;;;6.15;4.38;;;;;;;15.48;71.62;93412.97;5069388;28;20025;-41
2021/08/19 01:55:17;;;;;;;6.75;4.55;;;;;;;15.36;71.12;93401.63;5070285;28;20028;-40
2021/08/19 01:57:42;;;;;;;5.28;3.55;;;;;;;15.34;71.11;93400.75;5070268;28;20047;-41
2021/08/19 02:00:09;;;;;;;8.52;4.10;;;;;;;15.45;70.44;93403.00;5070300;28;20035;-41
2021/08/19 02:02:34;;;;;;;5.95;3.95;;;;;;;15.46;70.61;93410.06;5070408;28;20044;-41
2021/08/19 02:05:00;;;;;;;5.15;3.88;;;;;;;15.42;70.49;93410.44;5052395;28;20439;-41
2021/08/19 02:07:25;;;;;;;6.53;4.40;;;;;;;15.40;70.15;93409.56;5069886;28;20031;-40
2021/08/19 02:09:50;;;;;;;5.63;4.65;;;;;;;15.38;70.29;93409.41;5044267;28;20029;-44
2021/08/19 02:12:16;;;;;;;4.97;3.90;;;;;;;15.29;70.53;93410.84;5030450;28;20024;-44
2021/08/19 02:14:41;;;;;;;5.07;4.28;;;;;;;15.29;70.40;93413.63;5030501;28;20048;-42
2021/08/19 02:17:07;;;;;;;5.60;4.68;;;;;;;15.27;70.80;93416.25;5030309;28;20502;-45
2021/08/19 02:19:32;;;;;;;8.98;4.30;;;;;;;15.27;70.91;93407.19;5030009;28;20026;-42
2021/08/19 02:21:57;;;;;;;5.40;4.35;;;;;;;15.29;71.06;93416.41;5030088;28;20029;-42
2021/08/19 02:24:23;;;;;;;4.90;4.13;;;;;;;14.92;72.83;93410.09;5030042;28;20044;-43
2021/08/19 02:26:48;;;;;;;7.38;4.20;;;;;;;14.78;72.55;93386.78;5040175;28;20117;-42
2021/08/19 02:29:14;;;;;;;7.72;4.50;;;;;;;14.85;72.28;93410.97;5033996;28;20025;-43
2021/08/19 02:31:41;;;;;;;5.95;4.00;;;;;;;14.88;71.63;93412.56;5029927;28;20066;-41
2021/08/19 02:34:08;;;;;;;7.47;4.72;;;;;;;14.88;72.14;93417.38;5038478;28;20110;-42
2021/08/19 02:36:33;;;;;;;9.38;4.40;;;;;;;14.95;71.98;93416.56;5068504;28;20484;-41
2021/08/19 02:38:59;;;;;;;6.45;4.47;;;;;;;14.86;71.62;93417.97;5042498;28;20032;-41
2021/08/19 02:41:24;;;;;;;5.35;3.90;;;;;;;14.90;71.39;93423.13;5029991;28;20037;-43
2021/08/19 02:43:49;;;;;;;9.13;4.30;;;;;;;14.92;71.02;93426.06;5030063;28;20025;-42
2021/08/19 02:46:15;;;;;;;8.45;4.22;;;;;;;14.92;71.02;93420.50;5030012;28;20021;-41
2021/08/19 02:48:41;;;;;;;5.28;3.55;;;;;;;14.90;70.21;93423.13;5029918;28;20618;-43
2021/08/19 02:51:07;;;;;;;4.45;3.40;;;;;;;14.84;69.84;93420.59;5029854;28;20048;-42
2021/08/19 02:53:33;;;;;;;6.28;3.30;;;;;;;14.82;69.46;93414.88;5029498;28;20481;-42
2021/08/19 02:55:58;;;;;;;6.57;3.63;;;;;;;14.84;69.44;93430.97;5029941;28;20049;-43
2021/08/19 02:58:23;;;;;;;5.60;3.90;;;;;;;14.65;69.78;93436.44;5029461;28;20038;-43
2021/08/19 03:00:49;;;;;;;5.70;3.63;;;;;;;14.67;69.95;93434.56;5029581;28;20029;-42
2021/08/19 03:03:14;;;;;;;4.38;3.78;;;;;;;14.65;69.90;93439.22;5029531;28;20033;-42
2021/08/19 03:05:40;;;;;;;4.88;3.58;;;;;;;14.58;69.76;93440.03;5029741;28;20021;-42
2021/08/19 03:08:05;;;;;;;4.40;3.80;;;;;;;14.44;70.06;93443.16;5029711;28;20026;-44
2021/08/19 03:10:31;;;;;;;6.93;4.22;;;;;;;14.47;70.00;93444.06;5029814;28;20478;-42
2021/08/19 03:12:56;;;;;;;5.82;4.20;;;;;;;14.43;70.47;93450.03;5029728;28;20033;-44
2021/08/19 03:15:22;;;;;;;5.30;4.10;;;;;;;14.34;70.88;93444.41;5029718;28;20025;-42
2021/08/19 03:17:47;;;;;;;6.30;4.32;;;;;;;14.30;70.88;93444.84;5029384;28;20738;-42
2021/08/19 03:20:13;;;;;;;6.55;3.92;;;;;;;14.24;71.43;93449.13;5028182;28;20025;-42
2021/08/19 03:22:39;;;;;;;9.07;4.32;;;;;;;14.09;71.41;93449.31;5029620;28;20040;-43
2021/08/19 03:25:07;;;;;;;6.32;4.15;;;;;;;13.89;71.93;93447.66;5029261;28;20481;-43
2021/08/19 03:27:33;;;;;;;5.25;4.15;;;;;;;13.77;72.83;93452.22;5030996;28;20044;-40
2021/08/19 03:29:58;;;;;;;5.20;4.40;;;;;;;13.79;73.05;93461.47;5050332;28;20029;-41
2021/08/19 03:32:24;;;;;;;7.40;4.30;;;;;;;13.80;72.44;93464.94;5030950;28;20087;-41
2021/08/19 03:34:49;;;;;;;4.75;4.05;;;;;;;13.85;72.01;93461.22;5029483;28;20025;-41
2021/08/19 03:37:15;;;;;;;5.25;4.75;;;;;;;13.88;72.08;93462.84;5029163;28;20033;-41
2021/08/19 03:39:40;;;;;;;6.35;4.55;;;;;;;13.86;71.66;93457.13;5028950;28;20029;-41
2021/08/19 03:42:06;;;;;;;4.70;3.45;;;;;;;14.00;71.13;93480.50;5041556;28;20649;-41
2021/08/19 03:44:32;;;;;;;5.18;3.60;;;;;;;14.04;70.80;93473.22;5051755;28;20036;-39
2021/08/19 03:46:58;;;;;;;5.60;4.15;;;;;;;14.06;70.67;93467.84;5050834;28;20107;-40
2021/08/19 03:49:24;;;;;;;5.57;4.45;;;;;;;14.03;70.12;93469.00;5050360;28;20055;-39
2021/08/19 03:51:49;;;;;;;5.07;4.10;;;;;;;13.98;69.96;93477.53;5051219;28;20489;-39
2021/08/19 03:54:16;;;;;;;5.22;3.90;;;;;;;13.92;69.78;93480.56;5050874;28;20516;-40
2021/08/19 03:56:41;;;;;;;4.53;3.50;;;;;;;13.94;69.80;93475.19;5050715;28;20433;-40
2021/08/19 03:59:07;;;;;;;4.70;3.80;;;;;;;13.91;69.89;93478.34;5051309;28;20021;-42
2021/08/19 04:01:33;;;;;;;5.40;3.58;;;;;;;13.71;69.76;93463.56;5052500;28;20036;-42
2021/08/19 04:03:58;;;;;;;6.63;3.88;;;;;;;13.84;69.58;93482.66;5052519;28;20025;-42
2021/08/19 04:06:24;;;;;;;6.80;4.15;;;;;;;13.87;69.81;93475.25;5052854;28;20028;-43
2021/08/19 04:21:18;;;;;;;6.65;3.90;;;;;;;14.54;67.42;93482.13;5125762;27;20637;-41
2021/08/19 04:23:44;;;;;;;4.75;3.80;;;;;;;14.39;67.83;93477.50;5126112;27;20039;-41
2021/08/19 04:26:11;;;;;;;13.05;4.18;;;;;;;14.25;68.36;93476.31;5125178;27;20057;-41
2021/08/19 04:28:36;;;;;;;4.40;3.70;;;;;;;14.26;68.77;93493.72;5105455;28;20031;-42
2021/08/19 04:31:02;;;;;;;7.00;3.50;;;;;;;14.12;68.88;93487.03;5103507;28;20397;-42
2021/08/19 04:33:28;;;;;;;5.43;4.10;;;;;;;14.05;69.30;93487.84;5105506;28;20481;-41
2021/08/19 04:35:55;;;;;;;7.05;3.55;;;;;;;14.00;70.33;93491.59;5105375;28;20062;-42
2021/08/19 04:38:21;;;;;;;5.60;4.45;;;;;;;13.77;70.51;93496.63;5113038;28;20015;-41
2021/08/19 04:40:46;;;;;;;7.05;5.15;;;;;;;13.55;71.05;93490.72;5125858;27;20380;-41
2021/08/19 04:43:12;;;;;;;9.02;5.95;;;;;;;13.47;71.48;93489.31;5121838;27;20031;-42
2021/08/19 04:45:37;;;;;;;8.43;5.25;;;;;;;13.25;72.50;93498.50;5114061;28;20028;-43
2021/08/19 04:48:03;;;;;;;7.32;6.28;;;;;;;13.26;72.88;93489.63;5113761;27;20417;-43
2021/08/19 04:50:29;;;;;;;5.50;5.00;;;;;;;13.16;73.51;93488.78;5113243;27;20011;-43
2021/08/19 04:52:54;;;;;;;7.88;5.75;;;;;;;13.30;73.98;93495.50;5115976;28;20031;-42
2021/08/19 04:55:20;;;;;;;7.65;6.13;;;;;;;13.37;73.72;93491.94;5112849;28;20503;-43
2021/08/19 04:57:45;;;;;;;29.45;6.07;;;;;;;13.47;73.60;93487.25;5123485;28;20110;-43
2021/08/19 05:00:11;;;;;;;9.20;5.47;;;;;;;13.65;73.41;93486.00;5119344;27;20062;-43
2021/08/19 05:02:37;;;;;;;7.53;5.03;;;;;;;13.83;72.89;93488.78;5113856;27;20031;-44
2021/08/19 05:05:02;;;;;;;7.28;5.35;;;;;;;13.89;73.65;93475.41;5114609;27;20020;-44
2021/08/19 05:07:30;;;;;;;8.32;4.93;;;;;;;13.98;73.52;93483.09;5123410;28;20027;-43
2021/08/19 05:29:25;;;;;;;6.97;5.50;;;;;;;15.71;67.08;93469.00;5036012;28;20660;-42
2021/08/19 05:31:51;;;;;;;7.53;4.07;;;;;;;15.61;67.36;93463.41;5034985;28;20041;-42
2021/08/19 05:34:16;;;;;;;7.38;4.65;;;;;;;15.57;67.75;93473.50;5034811;28;20021;-42
2021/08/19 05:36:42;;;;;;;5.90;4.45;;;;;;;15.54;67.67;93472.63;5033235;28;20022;-42
2021/08/19 05:39:07;;;;;;;7.47;4.10;;;;;;;15.59;68.54;93476.44;5033045;28;20029;-42
2021/08/19 05:41:34;;;;;;;9.07;3.05;;;;;;;15.45;64.38;93453.81;5034671;28;20413;-42
2021/08/19 05:43:59;;;;;;;3.78;2.78;;;;;;;15.63;60.62;93468.38;5032607;28;20029;-44
2021/08/19 05:46:25;;;;;;;7.18;3.50;;;;;;;15.73;57.95;93480.28;5033353;28;20017;-43
2021/08/19 05:48:50;;;;;;;5.20;3.20;;;;;;;15.80;59.16;93480.16;5033553;28;20025;-43
2021/08/19 05:51:16;;;;;;;7.45;3.20;;;;;;;15.85;58.45;93476.34;5034701;28;20022;-43
2021/08/19 05:53:42;;;;;;;4.28;2.90;;;;;;;15.93;59.44;93473.44;5033269;28;20036;-43
2021/08/19 05:56:08;;;;;;;5.78;3.38;;;;;;;16.00;57.77;93475.38;5034619;28;20025;-43
2021/08/19 05:58:33;;;;;;;5.47;3.17;;;;;;;16.18;59.30;93470.38;5032650;28;20029;-43
2021/08/19 06:00:59;;;;;;;5.32;3.35;;;;;;;16.26;57.62;93468.22;5024728;28;20030;-43
2021/08/19 06:03:24;;;;;;;3.95;2.70;;;;;;;16.36;58.72;93460.59;5024418;28;20030;-43
2021/08/19 06:05:50;;;;;;;4.07;2.58;;;;;;;16.40;56.40;93464.41;5024249;28;20025;-43
2021/08/19 06:08:16;;;;;;;5.95;2.78;;;;;;;16.47;53.85;93460.72;5024568;28;20036;-42
2021/08/19 06:10:41;;;;;;;4.03;2.63;;;;;;;16.55;53.05;93464.13;5023913;28;20096;-42
2021/08/19 06:13:07;;;;;;;3.85;2.78;;;;;;;16.65;53.33;93456.47;5024064;28;20026;-43
2021/08/19 06:15:33;;;;;;;3.95;2.92;;;;;;;16.89;52.30;93453.97;5024828;28;20013;-42
2021/08/19 06:17:59;;;;;;;3.85;2.50;;;;;;;17.08;51.21;93460.25;5037079;28;20045;-42
2021/08/19 06:20:25;;;;;;;6.05;2.78;;;;;;;17.23;52.96;93467.53;5024341;28;20022;-42
2021/08/19 06:22:54;;;;;;;5.07;2.45;;;;;;;17.31;49.29;93466.03;5020272;28;20061;-43
2021/08/19 06:25:20;;;;;;;3.92;2.55;;;;;;;17.37;49.49;93466.44;5020288;28;20029;-42
2021/08/19 06:27:46;;;;;;;6.93;2.72;;;;;;;17.45;48.29;93455.84;5021172;28;20041;-42
2021/08/19 06:30:13;;;;;;;10.32;2.47;;;;;;;17.65;49.39;93447.41;5016204;28;20022;-42
2021/08/19 06:32:38;;;;;;;4.63;2.58;;;;;;;17.76;47.35;93453.06;5020048;28;20517;-42
2021/08/19 06:35:04;;;;;;;5.95;2.50;;;;;;;17.80;49.25;93453.34;5020996;28;20033;-42
2021/08/19 06:37:30;;;;;;;11.15;2.95;;;;;;;17.92;49.40;93451.38;5018350;28;20021;-42
2021/08/19 06:39:55;;;;;;;3.38;2.90;;;;;;;17.99;47.01;93450.47;5019873;28;20018;-44
2021/08/19 06:42:21;;;;;;;3.55;2.38;;;;;;;18.08;46.43;93452.44;5019862;28;20483;-44
2021/08/19 06:44:46;;;;;;;3.05;2.60;;;;;;;18.19;44.81;93451.78;5021185;28;20575;-43
2021/08/19 06:47:12;;;;;;;4.22;2.35;;;;;;;18.32;45.16;93447.00;5015985;28;20029;-43
2021/08/19 06:49:39;;;;;;;5.05;2.55;;;;;;;18.40;44.59;93445.47;5010660;28;20030;-43
2021/08/19 06:52:05;;;;;;;4.63;2.60;;;;;;;18.42;44.49;93437.22;5010954;28;20057;-43
2021/08/19 06:54:30;;;;;;;28.98;5.82;;;;;;;18.48;44.90;93436.88;5010385;28;20088;-43
2021/08/19 06:56:56;;;;;;;8.57;2.25;;;;;;;18.66;43.02;93441.59;5009938;28;20038;-43
2021/08/19 06:59:21;;;;;;;13.50;2.72;;;;;;;18.75;44.79;93448.44;5008830;28;20025;-43
2021/08/19 07:01:47;;;;;;;4.47;2.20;;;;;;;18.83;42.96;93448.94;5018303;28;20036;-43
2021/08/19 07:04:12;;;;;;;2.72;2.08;;;;;;;18.99;43.08;93452.78;5019167;28;20021;-42
2021/08/19 07:06:38;;;;;;;4.32;2.15;;;;;;;19.06;42.42;93443.41;5021266;28;20028;-42
2021/08/19 07:09:03;;;;;;;8.93;2.53;;;;;;;19.16;43.16;93446.09;5030015;28;20029;-44
2021/08/19 07:11:29;;;;;;;6.32;2.15;;;;;;;19.22;40.83;93450.00;5023214;28;20017;-42
2021/08/19 07:13:55;;;;;;;4.15;2.45;;;;;;;19.32;42.32;93447.84;5019345;28;20026;-42
2021/08/19 07:16:20;;;;;;;5.07;2.20;;;;;;;19.43;40.55;93446.41;5019361;28;20525;-43
2021/08/19 07:18:45;;;;;;;4.47;2.30;;;;;;;19.53;41.98;93444.25;5023531;28;20033;-42
2021/08/19 07:21:11;;;;;;;5.03;2.10;;;;;;;19.62;40.57;93441.31;5021416;28;20479;-42
2021/08/19 07:23:36;;;;;;;2.47;2.03;;;;;;;19.87;39.52;93442.75;5019022;28;20099;-42
2021/08/19 07:26:02;;;;;;;4.47;1.80;;;;;;;20.31;39.63;93442.63;5019143;28;20041;-44
2021/08/19 07:28:27;;;;;;;2.88;2.10;;;;;;;21.77;37.61;93438.81;5028789;28;20553;-45
2021/08/19 07:30:53;;;;;;;3.15;2.00;;;;;;;23.61;32.26;93440.19;5023355;28;20025;-44
2021/08/19 07:33:19;;;;;;;3.80;1.98;;;;;;;25.18;29.64;93438.50;5026883;28;20064;-44
2021/08/19 07:35:48;;;;;;;6.07;2.10;;;;;;;26.60;27.45;93436.75;5026278;28;20045;-43
2021/08/19 07:38:17;;;;;;;2.75;1.40;;;;;;;27.81;24.94;93434.31;5019421;28;20025;-40
2021/08/19 07:40:42;;;;;;;;;;;;;;;28.80;24.48;93435.00;5010335;28;20028;-41
2021/08/19 07:43:08;;;;;;;8.52;1.90;;;;;;;29.29;22.64;93437.69;5023509;28;19909;-44
2021/08/19 07:45:34;;;;;;;5.13;1.67;;;;;;;30.41;22.27;93438.78;5031478;28;20075;-42
2021/08/19 07:48:07;;;;;;;12.07;2.20;;;;;;;31.64;19.83;93438.16;5031421;28;20025;-43
2021/08/19 07:50:33;;;;;;;4.80;1.55;;;;;;;32.65;18.73;93435.28;5028212;28;20491;-42
2021/08/19 07:52:58;;;;;;;1.52;1.40;;;;;;;33.51;18.74;93437.56;5021084;28;20021;-43
2021/08/19 07:55:23;;;;;;;4.93;1.40;;;;;;;34.39;16.86;93440.31;5022315;28;20017;-42
2021/08/19 07:57:50;;;;;;;2.30;1.33;;;;;;;34.08;16.92;93438.72;5028495;28;20037;-43
2021/08/19 08:00:24;;;;;;;6.40;2.00;;;;;;;34.90;16.40;93435.50;5029369;28;20097;-43
2021/08/19 08:02:51;;;;;;;4.30;1.45;;;;;;;34.31;16.18;93429.53;5021630;28;20025;-43
2021/08/19 08:05:17;;;;;;;3.40;1.80;;;;;;;34.18;16.95;93422.28;5019350;28;20395;-43
2021/08/19 08:07:43;;;;;;;2.90;1.30;;;;;;;34.44;16.38;93427.44;5026750;28;20025;-43
2021/08/19 08:10:08;;;;;;;26.08;2.63;;;;;;;35.48;15.92;93423.44;5030114;28;20025;-43
2021/08/19 08:12:34;;;;;;;41.33;3.97;;;;;;;36.25;15.46;93421.94;5025733;28;20067;-45
2021/08/19 08:14:59;;;;;;;5.07;2.28;;;;;;;36.75;14.59;93423.22;5031227;28;20022;-43
2021/08/19 08:17:26;;;;;;;5.60;1.73;;;;;;;37.45;14.01;93425.00;5022608;28;20029;-42
2021/08/19 08:19:51;;;;;;;2.30;1.33;;;;;;;37.71;13.94;93428.38;5011070;28;20053;-43
2021/08/19 08:22:18;;;;;;;5.57;1.70;;;;;;;38.16;13.46;93422.94;5011164;28;20053;-43
2021/08/19 08:24:43;;;;;;;2.47;1.48;;;;;;;38.77;12.93;93423.00;5011398;28;20025;-43
2021/08/19 08:27:09;;;;;;;2.05;1.60;;;;;;;38.49;13.19;93421.16;5011083;28;20153;-44
2021/08/19 08:29:35;;;;;;;1.83;1.42;;;;;;;38.64;12.53;93410.88;5011234;28;20525;-44
2021/08/19 08:32:05;;;;;;;3.55;1.80;;;;;;;38.91;13.30;93407.66;5018261;28;20030;-44
2021/08/19 08:34:34;;;;;;;3.08;1.40;;;;;;;39.38;12.49;93420.72;5019726;28;20015;-43
2021/08/19 08:37:00;;;;;;;1.80;1.40;;;;;;;39.75;11.95;93402.84;5020033;28;20151;-43
2021/08/19 08:39:26;;;;;;;1.75;1.27;;;;;;;40.07;11.97;93399.41;5020626;28;20058;-43
2021/08/19 08:41:52;;;;;;;1.42;1.30;;;;;;;40.32;11.65;93405.47;5020909;28;20021;-44
2021/08/19 08:44:20;;;;;;;62.83;5.10;;;;;;;40.24;11.67;93396.94;5019992;28;20029;-44
2021/08/19 08:46:46;;;;;;;1.63;1.17;;;;;;;40.13;12.01;93402.19;5021890;28;20479;-43
2021/08/19 08:49:13;;;;;;;1.65;1.17;;;;;;;39.57;12.06;93400.25;5030594;28;20037;-43
2021/08/19 08:51:39;;;;;;;4.70;1.38;;;;;;;39.95;11.98;93385.84;5024482;28;20056;-43
2021/08/19 08:54:04;;;;;;;10.45;1.75;;;;;;;39.93;11.41;93391.69;5029164;28;20225;-45
2021/08/19 08:56:30;;;;;;;2.17;1.77;;;;;;;39.63;11.10;93400.16;5023133;28;20078;-46
2021/08/19 08:58:56;;;;;;;14.48;3.72;;;;;;;39.60;11.83;93378.50;5029451;28;20441;-43
2021/08/19 09:01:21;;;;;;;4.57;1.58;;;;;;;39.98;11.37;93403.88;5024310;28;20415;-44
2021/08/19 09:03:47;;;;;;;6.95;1.58;;;;;;;39.24;12.30;93391.34;5019261;28;20049;-42
2021/08/19 09:06:16;;;;;;;2.95;1.77;;;;;;;39.53;11.57;93397.41;5020899;28;20037;-43
2021/08/19 09:08:51;;;;;;;108.10;7.13;;;;;;;40.27;11.81;93396.13;5020482;28;20021;-43
2021/08/19 09:11:17;;;;;;;67.28;5.95;;;;;;;39.98;11.23;93387.25;5019880;28;20079;-44
2021/08/19 09:13:43;;;;;;;7.18;1.67;;;;;;;39.48;11.46;93396.03;5019349;28;20022;-44
2021/08/19 09:16:19;;;;;;;4.43;1.85;;;;;;;39.58;11.54;93393.72;5018510;28;20029;-44
2021/08/19 09:18:45;;;;;;;2.40;1.30;;;;;;;40.48;11.16;93387.81;5021278;28;20036;-43
2021/08/19 09:21:18;;;;;;;4.78;1.70;;;;;;;40.06;11.54;93389.31;5018608;28;20034;-43
2021/08/19 09:23:43;;;;;;;1.98;1.25;;;;;;;39.60;11.91;93392.97;5030398;28;20029;-44
2021/08/19 09:26:09;;;;;;;5.78;2.08;;;;;;;38.84;12.05;93391.88;5026650;28;20107;-43
2021/08/19 09:28:34;;;;;;;2.28;1.65;;;;;;;38.90;12.23;93383.16;5010059;28;20049;-45
2021/08/19 09:31:09;;;;;;;3.08;1.20;;;;;;;39.68;11.66;93390.66;5012853;28;20032;-43
2021/08/19 09:33:37;;;;;;;2.88;1.35;;;;;;;40.08;11.76;93380.59;5019306;28;20018;-46
2021/08/19 09:36:06;;;;;;;1.42;1.10;;;;;;;38.93;11.54;93391.03;5017860;28;20484;-44
2021/08/19 09:38:40;;;;;;;2.42;1.65;;;;;;;38.89;12.48;93390.38;5019974;28;20025;-43
2021/08/19 09:41:19;;;;;;;5.40;1.77;;;;;;;38.84;12.16;93381.06;5020902;28;20029;-43
2021/08/19 09:43:50;;;;;;;1.95;1.75;;;;;;;39.19;11.24;93378.41;5020854;28;20026;-44
2021/08/19 09:46:36;;;;;;;1.40;1.20;;;;;;;39.57;11.40;93377.84;5019496;28;20026;-43
2021/08/19 09:49:37;;;;;;;1.40;1.20;;;;;;;40.25;10.90;93366.53;5019906;28;20034;-43
2021/08/19 09:52:08;;;;;;;1.85;1.60;;;;;;;39.59;10.90;93366.25;5016412;28;20038;-43
2021/08/19 09:54:41;;;;;;;2.72;1.40;;;;;;;39.91;11.64;93368.59;5030044;28;20037;-44
2021/08/19 09:57:09;;;;;;;2.90;1.67;;;;;;;40.64;11.20;93373.00;5032647;28;20033;-45
2021/08/19 09:59:38;;;;;;;2.03;1.43;;;;;;;40.84;10.66;93369.72;5033773;28;20100;-43
2021/08/19 10:02:05;;;;;;;1.85;1.30;;;;;;;41.23;10.96;93360.88;5033067;28;20171;-43
2021/08/19 10:04:31;;;;;;;24.30;3.10;;;;;;;41.45;10.75;93355.28;5035614;28;20104;-45
2021/08/19 10:06:57;;;;;;;4.68;1.63;;;;;;;41.88;10.46;93366.56;5045274;28;20090;-43
2021/08/19 10:09:23;;;;;;;1.83;1.30;;;;;;;42.13;9.92;93349.97;5042715;28;20026;-42
2021/08/19 10:11:50;;;;;;;3.95;1.55;;;;;;;42.38;9.72;93358.72;5012755;28;20568;-42
2021/08/19 10:14:18;;;;;;;3.00;1.70;;;;;;;42.43;9.43;93354.19;5030541;28;20037;-43
2021/08/19 10:16:44;;;;;;;;;;;;;;;41.70;10.18;93351.81;5032675;28;20067;-42
2021/08/19 10:19:19;;;;;;;7.68;1.60;;;;;;;41.89;9.83;93359.28;5015814;28;19909;-42
2021/08/19 10:21:51;;;;;;;2.13;1.45;;;;;;;41.97;9.84;93358.34;5012434;28;20018;-43
2021/08/19 10:24:17;;;;;;;2.40;1.70;;;;;;;42.01;10.01;93358.25;5012030;28;20034;-44
2021/08/19 10:26:43;;;;;;;9.55;1.58;;;;;;;42.20;9.41;93350.50;5010817;28;20033;-44
2021/08/19 10:29:08;;;;;;;3.60;1.35;;;;;;;41.43;9.97;93361.13;5010530;28;20050;-44
2021/08/19 10:31:40;;;;;;;10.90;1.90;;;;;;;41.11;10.31;93352.47;5011749;28;20026;-43
2021/08/19 10:34:07;;;;;;;2.38;1.13;;;;;;;41.25;9.82;93349.25;5011904;28;20038;-43
2021/08/19 10:36:38;;;;;;;2.88;1.30;;;;;;;40.79;10.21;93345.88;5012013;28;20034;-43
2021/08/19 10:39:19;;;;;;;1.52;1.42;;;;;;;40.48;10.41;93353.78;5011574;28;20061;-42
2021/08/19 10:41:48;;;;;;;4.65;1.35;;;;;;;40.83;9.79;93348.72;5011703;28;20030;-42
2021/08/19 10:44:15;;;;;;;6.30;1.90;;;;;;;40.17;10.25;93343.53;5011670;28;20117;-41
2021/08/19 10:46:47;;;;;;;3.03;1.30;;;;;;;39.45;11.34;93351.28;5011775;28;20076;-42
2021/08/19 10:49:31;;;;;;;1.77;1.50;;;;;;;39.84;11.24;93343.41;5012098;28;20025;-41
2021/08/19 10:52:09;;;;;;;1.83;1.30;;;;;;;39.50;11.18;93353.38;5011830;28;20045;-41
2021/08/19 10:54:41;;;;;;;1.75;1.52;;;;;;;38.95;11.86;93335.44;5011833;28;20044;-41
2021/08/19 10:57:23;;;;;;;9.35;2.25;;;;;;;39.46;11.24;93344.78;5011977;28;20058;-42
2021/08/19 10:59:57;;;;;;;5.55;1.63;;;;;;;39.20;11.24;93339.44;5011657;28;20698;-41
2021/08/19 11:02:45;;;;;;;2.55;1.65;;;;;;;39.39;11.91;93337.66;5011624;28;20053;-40
2021/08/19 11:05:37;;;;;;;3.30;1.60;;;;;;;39.60;11.45;93333.00;5011814;28;20038;-43
2021/08/19 11:08:04;;;;;;;7.25;1.83;;;;;;;38.91;11.16;93344.88;5008224;28;20474;-39
2021/08/19 11:10:31;;;;;;;4.38;1.50;;;;;;;38.46;12.45;93341.88;5026737;28;20128;-41
2021/08/19 11:13:04;;;;;;;3.85;1.70;;;;;;;37.83;12.23;93338.22;5028722;28;20045;-41
2021/08/19 11:15:30;;;;;;;1.58;1.42;;;;;;;36.58;13.16;93338.44;5028753;28;20108;-40
2021/08/19 11:17:58;;;;;;;1.48;1.33;;;;;;;36.21;14.01;93334.97;5022151;28;20029;-40
2021/08/19 11:20:24;;;;;;;8.80;2.22;;;;;;;36.23;13.33;93338.56;5008568;28;20026;-43
2021/08/19 11:23:06;;;;;;;3.72;1.30;;;;;;;36.27;13.67;93332.06;5008647;28;20042;-42
2021/08/19 11:25:34;;;;;;;1.80;1.35;;;;;;;35.76;14.20;93328.63;5008575;28;20060;-41
2021/08/19 11:28:16;;;;;;;1.97;1.63;;;;;;;36.11;13.49;93332.84;5008684;28;20062;-42
2021/08/19 11:30:45;;;;;;;4.28;1.10;;;;;;;36.14;14.55;93331.41;5008810;28;20038;-41
2021/08/19 11:33:22;;;;;;;3.15;1.85;;;;;;;36.04;15.05;93328.56;5008434;28;20447;-41
2021/08/19 11:36:01;;;;;;;5.15;1.35;;;;;;;35.75;14.17;93325.03;5008730;28;20114;-42
2021/08/19 11:38:28;;;;;;;3.92;1.52;;;;;;;35.91;14.62;93329.31;5007834;28;20068;-41
2021/08/19 11:40:55;;;;;;;3.05;1.42;;;;;;;35.96;14.51;93327.88;5008184;28;20542;-43
2021/08/19 11:43:21;;;;;;;1.63;1.38;;;;;;;35.77;15.00;93325.03;5008234;28;20125;-43
2021/08/19 11:45:48;;;;;;;3.33;1.60;;;;;;;36.12;14.12;93317.06;5008160;28;20105;-42
2021/08/19 11:48:17;;;;;;;3.47;1.63;;;;;;;35.93;14.00;93318.50;5006725;28;20442;-42
2021/08/19 11:50:43;;;;;;;7.43;1.85;;;;;;;34.59;15.53;93327.88;5008135;28;20434;-42
2021/08/19 11:53:08;;;;;;;5.43;1.77;;;;;;;34.27;16.21;93323.47;5008235;28;20030;-43
2021/08/19 11:55:37;;;;;;;2.28;1.60;;;;;;;34.41;15.49;93308.47;5006170;28;20040;-42
2021/08/19 11:58:25;;;;;;;1.90;1.45;;;;;;;34.31;16.01;93317.00;5007627;28;20038;-41
2021/08/19 12:00:58;;;;;;;2.15;1.80;;;;;;;33.65;16.73;93314.56;5007814;28;20141;-41
2021/08/19 12:03:25;;;;;;;2.45;1.70;;;;;;;33.53;17.78;93318.06;5008013;28;20045;-42
2021/08/19 12:06:10;;;;;;;3.05;1.63;;;;;;;33.31;16.73;93309.31;5018319;28;20041;-42